createdAt,value
2018-03-27T00:02:10.431Z,89.68
2018-03-27T00:04:37.982Z,89.67
2018-03-27T00:07:05.877Z,89.72
2018-03-27T00:09:33.422Z,89.72
2018-03-27T00:12:00.984Z,89.56
2018-03-27T00:14:28.721Z,89.48
2018-03-27T00:16:56.273Z,89.57
2018-03-27T00:19:23.835Z,89.64
2018-03-27T00:21:51.437Z,89.77
2018-03-27T00:24:18.989Z,89.72
2018-03-27T00:26:58.320Z,89.70
2018-03-27T00:29:37.539Z,89.72
2018-03-27T00:32:17.158Z,89.71
2018-03-27T00:34:56.374Z,89.66
2018-03-27T00:37:35.702Z,89.60
2018-03-27T00:40:14.791Z,89.60
2018-03-27T00:42:50.191Z,89.67
2018-03-27T00:45:17.729Z,89.65
2018-03-27T00:47:45.284Z,89.63
2018-03-27T00:50:13.150Z,89.62
2018-03-27T00:52:40.709Z,89.55
2018-03-27T00:55:08.257Z,89.50
2018-03-27T00:57:35.838Z,89.47
2018-03-27T01:00:03.398Z,89.45
2018-03-27T01:02:30.949Z,89.37
2018-03-27T01:05:04.113Z,89.27
2018-03-27T01:07:31.664Z,89.26
2018-03-27T01:09:59.236Z,89.45
2018-03-27T01:12:27.101Z,89.50
2018-03-27T01:14:54.661Z,89.49
2018-03-27T01:17:22.202Z,89.57
2018-03-27T01:19:49.790Z,89.64
2018-03-27T01:22:17.404Z,89.71
2018-03-27T01:24:44.966Z,89.75
2018-03-27T01:27:12.554Z,89.68
2018-03-27T01:29:40.098Z,89.77
2018-03-27T01:32:07.678Z,89.97
2018-03-27T01:34:35.324Z,89.90
2018-03-27T01:37:02.841Z,89.81
2018-03-27T01:39:30.399Z,89.75
2018-03-27T01:41:58.262Z,89.89
2018-03-27T01:44:25.805Z,89.94
2018-03-27T01:46:53.354Z,90.08
2018-03-27T01:49:21.155Z,90.08
2018-03-27T01:51:48.703Z,90.03
2018-03-27T01:54:16.255Z,90.10
2018-03-27T01:56:43.836Z,90.20
2018-03-27T01:59:11.404Z,90.20
2018-03-27T02:01:38.949Z,90.30
2018-03-27T02:04:06.552Z,90.38
2018-03-27T02:06:34.109Z,90.50
2018-03-27T02:09:01.692Z,90.65
2018-03-27T02:11:34.986Z,90.51
2018-03-27T02:14:08.100Z,90.46
2018-03-27T02:16:41.418Z,90.39
2018-03-27T02:19:14.545Z,90.10
2018-03-27T02:21:41.536Z,90.18
2018-03-27T02:24:09.531Z,90.21
2018-03-27T02:26:37.078Z,90.25
2018-03-27T02:29:04.647Z,90.18
2018-03-27T02:31:32.227Z,90.16
2018-03-27T02:33:59.781Z,90.15
2018-03-27T02:36:27.329Z,90.12
2018-03-27T02:38:55.137Z,90.00
2018-03-27T02:41:22.681Z,90.02
2018-03-27T02:43:50.228Z,90.06
2018-03-27T02:46:17.854Z,90.05
2018-03-27T02:48:45.423Z,90.01
2018-03-27T02:51:13.038Z,89.96
2018-03-27T02:53:40.629Z,89.88
2018-03-27T02:56:08.184Z,89.70
2018-03-27T02:58:35.761Z,89.81
2018-03-27T03:01:03.376Z,89.87
2018-03-27T03:03:30.933Z,89.83
2018-03-27T03:05:58.489Z,89.97
2018-03-27T03:08:26.177Z,89.94
2018-03-27T03:10:53.734Z,89.53
2018-03-27T03:13:21.281Z,89.54
2018-03-27T03:15:48.873Z,89.58
2018-03-27T03:18:16.426Z,89.65
2018-03-27T03:20:43.974Z,89.93
2018-03-27T03:23:11.613Z,90.02
2018-03-27T03:25:39.157Z,90.07
2018-03-27T03:28:06.711Z,90.13
2018-03-27T03:30:34.396Z,89.93
2018-03-27T03:33:01.971Z,90.13
2018-03-27T03:35:29.526Z,90.17
2018-03-27T03:37:57.278Z,90.11
2018-03-27T03:40:24.830Z,90.13
2018-03-27T03:42:52.381Z,90.00
2018-03-27T03:45:20.198Z,90.04
2018-03-27T03:47:47.749Z,90.11
2018-03-27T03:50:15.302Z,90.18
2018-03-27T03:52:43.026Z,90.35
2018-03-27T03:55:10.593Z,90.28
2018-03-27T03:57:38.133Z,90.23
2018-03-27T04:00:05.895Z,90.30
2018-03-27T04:02:33.447Z,90.31
2018-03-27T04:05:00.988Z,90.29
2018-03-27T04:07:28.566Z,90.39
2018-03-27T04:09:56.114Z,90.31
2018-03-27T04:12:23.670Z,90.34
2018-03-27T04:14:51.261Z,90.25
2018-03-27T04:17:18.801Z,90.16
2018-03-27T04:19:46.343Z,90.11
2018-03-27T04:22:13.934Z,90.16
2018-03-27T04:24:41.485Z,90.08
2018-03-27T04:27:09.041Z,90.19
2018-03-27T04:29:36.628Z,90.18
2018-03-27T04:32:04.178Z,90.15
2018-03-27T04:34:31.723Z,89.80
2018-03-27T04:36:59.302Z,89.75
2018-03-27T04:39:26.855Z,89.52
2018-03-27T04:41:54.470Z,89.39
2018-03-27T04:44:22.063Z,89.52
2018-03-27T04:46:49.604Z,89.60
2018-03-27T04:49:17.173Z,89.41
2018-03-27T04:51:44.770Z,88.88
2018-03-27T04:54:12.310Z,88.44
2018-03-27T04:56:39.861Z,88.77
2018-03-27T04:59:07.439Z,89.01
2018-03-27T05:01:34.991Z,88.81
2018-03-27T05:04:02.553Z,88.71
2018-03-27T05:06:30.423Z,88.70
2018-03-27T05:08:57.981Z,88.59
2018-03-27T05:11:25.538Z,88.70
2018-03-27T05:13:53.162Z,88.42
2018-03-27T05:16:20.745Z,88.00
2018-03-27T05:18:48.317Z,88.28
2018-03-27T05:21:15.898Z,88.59
2018-03-27T05:23:43.453Z,88.38
2018-03-27T05:26:11.013Z,87.99
2018-03-27T05:28:38.606Z,87.42
2018-03-27T05:31:06.185Z,87.41
2018-03-27T05:33:33.759Z,87.76
2018-03-27T05:36:01.477Z,88.09
2018-03-27T05:38:29.034Z,87.56
2018-03-27T05:40:56.614Z,87.31
2018-03-27T05:43:24.210Z,87.32
2018-03-27T05:45:51.761Z,87.25
2018-03-27T05:48:19.310Z,86.76
2018-03-27T05:50:46.895Z,86.74
2018-03-27T05:53:14.445Z,86.71
2018-03-27T05:55:41.994Z,86.78
2018-03-27T05:58:09.574Z,86.63
2018-03-27T06:00:37.126Z,86.31
2018-03-27T06:03:04.671Z,86.26
2018-03-27T06:05:32.322Z,85.95
2018-03-27T06:07:59.853Z,85.80
2018-03-27T06:10:27.393Z,84.96
2018-03-27T06:12:55.274Z,84.98
2018-03-27T06:15:22.815Z,84.01
2018-03-27T06:17:50.359Z,83.09
2018-03-27T06:20:17.961Z,83.06
2018-03-27T06:22:45.523Z,82.83
2018-03-27T06:25:13.086Z,82.91
2018-03-27T06:27:40.677Z,83.00
2018-03-27T06:30:08.232Z,82.80
2018-03-27T06:32:35.778Z,83.32
2018-03-27T06:35:03.682Z,83.92
2018-03-27T06:37:31.227Z,82.74
2018-03-27T06:39:58.770Z,83.12
2018-03-27T06:42:26.453Z,83.93
2018-03-27T06:44:53.998Z,83.67
2018-03-27T06:47:21.544Z,83.77
2018-03-27T06:49:49.138Z,82.64
2018-03-27T06:52:16.706Z,81.78
2018-03-27T06:54:44.249Z,81.20
2018-03-27T06:57:11.969Z,80.15
2018-03-27T06:59:39.516Z,79.62
2018-03-27T07:02:07.088Z,78.94
2018-03-27T07:04:34.960Z,77.29
2018-03-27T07:07:02.533Z,77.61
2018-03-27T07:09:30.075Z,77.98
2018-03-27T07:11:57.662Z,78.46
2018-03-27T07:14:25.888Z,78.48
2018-03-27T07:16:53.459Z,78.88
2018-03-27T07:19:21.053Z,79.17
2018-03-27T07:21:48.604Z,80.35
2018-03-27T07:24:16.150Z,81.19
2018-03-27T07:26:44.175Z,81.65
2018-03-27T07:29:11.724Z,81.68
2018-03-27T07:31:39.265Z,82.37
2018-03-27T07:34:07.082Z,82.21
2018-03-27T07:36:34.634Z,82.71
2018-03-27T07:39:02.175Z,82.69
2018-03-27T07:41:29.711Z,82.03
2018-03-27T07:43:57.264Z,82.47
2018-03-27T07:46:24.993Z,82.17
2018-03-27T07:51:19.370Z,83.09
2018-03-27T07:53:46.947Z,81.96
2018-03-27T07:56:14.487Z,81.90
2018-03-27T07:58:42.047Z,79.93
2018-03-27T08:01:09.774Z,80.08
2018-03-27T08:03:37.343Z,80.53
2018-03-27T08:06:04.895Z,81.20
2018-03-27T08:08:32.594Z,81.24
2018-03-27T08:11:00.214Z,80.94
2018-03-27T08:13:27.697Z,81.00
2018-03-27T08:15:55.266Z,80.95
2018-03-27T08:18:22.805Z,81.52
2018-03-27T08:20:50.351Z,81.08
2018-03-27T08:23:18.038Z,81.87
2018-03-27T08:25:45.590Z,81.87
2018-03-27T08:28:13.137Z,81.52
2018-03-27T08:30:40.740Z,81.42
2018-03-27T08:33:08.278Z,80.76
2018-03-27T08:35:35.822Z,80.07
2018-03-27T08:38:03.543Z,79.55
2018-03-27T08:40:31.087Z,79.13
2018-03-27T08:42:58.630Z,78.07
2018-03-27T08:45:26.204Z,75.61
2018-03-27T08:47:53.750Z,75.41
2018-03-27T08:50:21.312Z,74.59
2018-03-27T08:52:48.999Z,75.23
2018-03-27T08:55:16.541Z,75.13
2018-03-27T08:57:44.081Z,75.08
2018-03-27T09:00:11.797Z,75.25
2018-03-27T09:02:39.329Z,75.49
2018-03-27T09:05:06.886Z,75.19
2018-03-27T09:07:34.470Z,75.49
2018-03-27T09:10:02.012Z,75.57
2018-03-27T09:12:29.597Z,75.48
2018-03-27T09:14:57.453Z,74.33
2018-03-27T09:17:25.002Z,75.04
2018-03-27T09:19:52.538Z,73.24
2018-03-27T09:22:20.151Z,72.10
2018-03-27T09:24:47.706Z,70.81
2018-03-27T09:27:15.249Z,69.50
2018-03-27T09:29:42.821Z,67.60
2018-03-27T09:32:10.363Z,67.48
2018-03-27T09:34:37.904Z,68.31
2018-03-27T09:37:05.618Z,66.67
2018-03-27T09:39:33.156Z,67.54
2018-03-27T09:42:00.701Z,66.81
2018-03-27T09:44:28.399Z,68.40
2018-03-27T09:46:55.936Z,65.37
2018-03-27T09:49:23.475Z,64.20
2018-03-27T09:51:51.058Z,64.36
2018-03-27T09:54:18.619Z,64.33
2018-03-27T09:56:46.161Z,64.38
2018-03-27T09:59:14.069Z,63.14
2018-03-27T10:01:41.605Z,62.89
2018-03-27T10:04:09.166Z,63.14
2018-03-27T10:06:36.755Z,62.18
2018-03-27T10:09:04.341Z,62.00
2018-03-27T10:11:31.889Z,57.76
2018-03-27T10:13:59.469Z,58.80
2018-03-27T10:16:27.015Z,59.16
2018-03-27T10:18:54.564Z,58.75
2018-03-27T10:21:22.127Z,59.23
2018-03-27T10:23:49.671Z,59.18
2018-03-27T10:26:17.222Z,61.32
2018-03-27T10:28:44.872Z,62.43
2018-03-27T10:31:12.430Z,61.68
2018-03-27T10:33:39.966Z,61.91
2018-03-27T10:36:07.825Z,62.00
2018-03-27T10:38:35.367Z,60.41
2018-03-27T10:41:02.935Z,57.28
2018-03-27T10:43:30.713Z,59.41
2018-03-27T10:45:58.293Z,59.17
2018-03-27T10:48:25.835Z,60.55
2018-03-27T10:50:53.498Z,60.91
2018-03-27T10:53:21.037Z,59.95
2018-03-27T10:55:48.605Z,61.43
2018-03-27T10:58:16.189Z,61.15
2018-03-27T11:00:43.728Z,61.69
2018-03-27T11:03:11.291Z,61.26
2018-03-27T11:05:38.916Z,62.67
2018-03-27T11:08:06.464Z,62.62
2018-03-27T11:10:33.998Z,63.01
2018-03-27T11:13:01.713Z,64.10
2018-03-27T11:15:29.246Z,64.99
2018-03-27T11:17:56.782Z,65.16
2018-03-27T11:20:24.378Z,64.79
2018-03-27T11:22:51.934Z,63.76
2018-03-27T11:25:19.468Z,63.00
2018-03-27T11:27:47.058Z,63.77
2018-03-27T11:30:14.622Z,64.13
2018-03-27T11:32:42.180Z,63.63
2018-03-27T11:35:09.908Z,63.62
2018-03-27T11:37:37.451Z,64.18
2018-03-27T11:40:05.036Z,63.37
2018-03-27T11:42:32.777Z,63.30
2018-03-27T11:45:00.320Z,62.52
2018-03-27T11:47:27.869Z,63.47
2018-03-27T11:49:55.459Z,63.22
2018-03-27T11:52:23.015Z,60.41
2018-03-27T11:54:50.581Z,60.63
2018-03-27T11:57:18.289Z,59.34
2018-03-27T11:59:45.835Z,58.54
2018-03-27T12:02:13.426Z,58.61
2018-03-27T12:04:41.027Z,57.81
2018-03-27T12:07:08.592Z,58.73
2018-03-27T12:09:36.145Z,58.12
2018-03-27T12:12:04.727Z,58.30
2018-03-27T12:14:32.278Z,57.46
2018-03-27T12:16:59.825Z,58.38
2018-03-27T12:19:27.480Z,60.11
2018-03-27T12:21:55.026Z,59.13
2018-03-27T12:24:22.578Z,57.62
2018-03-27T12:26:50.178Z,58.23
2018-03-27T12:29:17.724Z,58.54
2018-03-27T12:31:45.316Z,59.21
2018-03-27T12:34:12.855Z,59.96
2018-03-27T12:36:40.413Z,60.93
2018-03-27T12:39:08.005Z,61.08
2018-03-27T12:41:35.561Z,60.24
2018-03-27T12:44:03.120Z,60.92
2018-03-27T12:46:30.706Z,61.44
2018-03-27T12:48:58.255Z,61.21
2018-03-27T12:51:25.810Z,62.12
2018-03-27T12:53:53.546Z,60.80
2018-03-27T12:56:21.089Z,59.44
2018-03-27T12:58:48.641Z,60.87
2018-03-27T13:01:16.323Z,60.00
2018-03-27T13:03:43.885Z,59.78
2018-03-27T13:06:11.429Z,60.81
2018-03-27T13:08:39.013Z,61.75
2018-03-27T13:11:06.571Z,62.05
2018-03-27T13:13:34.113Z,62.45
2018-03-27T13:16:01.847Z,63.15
2018-03-27T13:18:29.402Z,63.29
2018-03-27T13:20:56.959Z,64.33
2018-03-27T13:23:24.648Z,64.35
2018-03-27T13:25:52.195Z,64.85
2018-03-27T13:28:19.748Z,65.04
2018-03-27T13:30:47.326Z,64.37
2018-03-27T13:33:14.874Z,64.64
2018-03-27T13:35:42.425Z,65.27
2018-03-27T13:38:10.022Z,64.97
2018-03-27T13:40:37.583Z,65.30
2018-03-27T13:43:05.131Z,65.59
2018-03-27T13:45:32.798Z,64.69
2018-03-27T13:48:00.438Z,66.14
2018-03-27T13:50:27.951Z,65.77
2018-03-27T13:52:55.840Z,65.22
2018-03-27T13:55:23.390Z,65.42
2018-03-27T13:57:50.983Z,65.66
2018-03-27T14:00:18.714Z,66.33
2018-03-27T14:02:46.272Z,66.81
2018-03-27T14:05:13.817Z,66.75
2018-03-27T14:07:41.534Z,67.62
2018-03-27T14:10:09.086Z,68.30
2018-03-27T14:12:36.643Z,67.81
2018-03-27T14:15:04.317Z,67.26
2018-03-27T14:17:31.858Z,68.38
2018-03-27T14:19:59.406Z,67.83
2018-03-27T14:22:27.006Z,68.10
2018-03-27T14:24:54.640Z,68.13
2018-03-27T14:27:22.176Z,67.45
2018-03-27T14:29:49.764Z,67.43
2018-03-27T14:32:17.327Z,68.38
2018-03-27T14:34:44.878Z,69.41
2018-03-27T14:37:12.576Z,69.87
2018-03-27T14:39:41.039Z,68.86
2018-03-27T14:42:08.582Z,68.53
2018-03-27T14:44:36.475Z,68.20
2018-03-27T14:47:04.032Z,67.62
2018-03-27T14:49:31.845Z,67.69
2018-03-27T14:51:59.473Z,67.04
2018-03-27T14:54:27.043Z,68.04
2018-03-27T14:56:54.593Z,69.07
2018-03-27T14:59:22.191Z,68.11
2018-03-27T15:01:49.741Z,69.23
2018-03-27T15:04:17.303Z,69.09
2018-03-27T15:06:44.981Z,68.48
2018-03-27T15:09:12.539Z,68.77
2018-03-27T15:11:40.105Z,68.36
2018-03-27T15:14:07.680Z,68.63
2018-03-27T15:16:35.240Z,69.13
2018-03-27T15:19:02.791Z,69.75
2018-03-27T15:21:30.402Z,69.58
2018-03-27T15:23:57.956Z,69.47
2018-03-27T15:26:25.502Z,70.62
2018-03-27T15:28:53.077Z,70.57
2018-03-27T15:31:20.641Z,69.44
2018-03-27T15:33:48.190Z,69.04
2018-03-27T15:36:15.789Z,69.09
2018-03-27T15:38:43.337Z,70.21
2018-03-27T15:41:10.897Z,71.29
2018-03-27T15:43:38.633Z,70.87
2018-03-27T15:46:06.193Z,70.57
2018-03-27T15:48:33.747Z,70.53
2018-03-27T15:51:01.451Z,70.83
2018-03-27T15:53:28.998Z,71.07
2018-03-27T15:55:56.556Z,71.13
2018-03-27T15:58:24.154Z,70.56
2018-03-27T16:00:51.704Z,70.97
2018-03-27T16:03:19.259Z,71.32
2018-03-27T16:05:46.866Z,72.12
2018-03-27T16:08:14.427Z,72.45
2018-03-27T16:10:41.981Z,72.23
2018-03-27T16:13:09.864Z,72.61
2018-03-27T16:15:37.410Z,73.35
2018-03-27T16:18:04.988Z,73.81
2018-03-27T16:20:32.580Z,73.94
2018-03-27T16:23:00.147Z,72.41
2018-03-27T16:25:27.736Z,72.41
2018-03-27T16:27:55.334Z,72.72
2018-03-27T16:30:22.903Z,73.37
2018-03-27T16:32:50.459Z,74.51
2018-03-27T16:35:18.154Z,74.53
2018-03-27T16:37:45.714Z,73.77
2018-03-27T16:40:13.269Z,74.09
2018-03-27T16:42:40.846Z,74.25
2018-03-27T16:45:08.388Z,74.38
2018-03-27T16:47:36.089Z,74.82
2018-03-27T16:50:03.691Z,75.29
2018-03-27T16:52:31.250Z,75.82
2018-03-27T16:54:58.841Z,75.78
2018-03-27T16:57:26.390Z,75.48
2018-03-27T16:59:53.939Z,75.25
2018-03-27T17:02:21.634Z,76.47
2018-03-27T17:04:49.191Z,77.10
2018-03-27T17:07:16.742Z,76.94
2018-03-27T17:09:44.472Z,76.91
2018-03-27T17:12:12.020Z,76.46
2018-03-27T17:14:39.574Z,76.10
2018-03-27T17:17:07.299Z,76.31
2018-03-27T17:19:34.849Z,76.54
2018-03-27T17:22:02.415Z,75.97
2018-03-27T17:24:30.010Z,76.89
2018-03-27T17:26:57.563Z,77.20
2018-03-27T17:29:25.121Z,77.51
2018-03-27T17:31:52.719Z,77.95
2018-03-27T17:34:20.273Z,78.54
2018-03-27T17:36:47.826Z,79.49
2018-03-27T17:39:15.722Z,79.80
2018-03-27T17:41:43.281Z,79.85
2018-03-27T17:44:10.830Z,79.38
2018-03-27T17:46:38.562Z,79.79
2018-03-27T17:49:06.112Z,79.81
2018-03-27T17:51:33.676Z,79.96
2018-03-27T17:54:01.426Z,79.34
2018-03-27T17:56:28.986Z,79.21
2018-03-27T17:58:56.555Z,79.38
2018-03-27T18:01:24.146Z,79.31
2018-03-27T18:03:51.711Z,79.62
2018-03-27T18:06:19.269Z,79.98
2018-03-27T18:08:47.038Z,79.58
2018-03-27T18:11:14.622Z,79.54
2018-03-27T18:13:42.195Z,78.62
2018-03-27T18:16:09.802Z,78.39
2018-03-27T18:18:37.464Z,78.31
2018-03-27T18:21:05.095Z,78.02
2018-03-27T18:23:32.686Z,77.67
2018-03-27T18:26:00.259Z,77.72
2018-03-27T18:28:27.835Z,77.27
2018-03-27T18:30:55.603Z,76.39
2018-03-27T18:33:23.183Z,75.83
2018-03-27T18:35:50.744Z,75.83
2018-03-27T18:38:18.347Z,75.68
2018-03-27T18:40:45.897Z,75.86
2018-03-27T18:43:14.159Z,75.44
2018-03-27T18:45:41.901Z,75.45
2018-03-27T18:48:09.463Z,75.10
2018-03-27T18:50:37.775Z,74.83
2018-03-27T18:53:05.386Z,74.79
2018-03-27T18:55:32.970Z,74.00
2018-03-27T18:58:00.526Z,74.07
2018-03-27T19:00:28.279Z,73.73
2018-03-27T19:02:55.835Z,73.86
2018-03-27T19:05:23.425Z,72.22
2018-03-27T19:07:51.304Z,72.21
2018-03-27T19:10:18.874Z,73.78
2018-03-27T19:12:46.437Z,74.22
2018-03-27T19:15:14.180Z,71.52
2018-03-27T19:17:41.750Z,70.49
2018-03-27T19:20:09.385Z,69.79
2018-03-27T19:22:37.028Z,69.55
2018-03-27T19:25:04.583Z,69.91
2018-03-27T19:27:32.148Z,68.21
2018-03-27T19:29:59.857Z,68.22
2018-03-27T19:32:27.423Z,66.92
2018-03-27T19:34:54.987Z,67.74
2018-03-27T19:37:22.854Z,68.23
2018-03-27T19:39:50.427Z,68.17
2018-03-27T19:42:18.015Z,68.50
2018-03-27T19:44:45.765Z,68.62
2018-03-27T19:47:13.338Z,68.28
2018-03-27T19:49:40.915Z,69.04
2018-03-27T19:52:08.526Z,70.05
2018-03-27T19:54:36.081Z,70.36
2018-03-27T19:57:03.664Z,70.93
2018-03-27T19:59:31.286Z,71.25
2018-03-27T20:01:59.752Z,72.37
2018-03-27T20:04:27.338Z,72.27
2018-03-27T20:06:54.933Z,71.45
2018-03-27T20:09:22.477Z,71.83
2018-03-27T20:11:50.025Z,72.17
2018-03-27T20:14:17.754Z,72.36
2018-03-27T20:16:45.329Z,71.98
2018-03-27T20:19:12.878Z,71.83
2018-03-27T20:21:40.726Z,71.77
2018-03-27T20:24:08.297Z,70.91
2018-03-27T20:26:35.851Z,70.84
2018-03-27T20:29:03.460Z,71.37
2018-03-27T20:31:31.022Z,71.88
2018-03-27T20:33:58.592Z,70.87
2018-03-27T20:36:26.338Z,70.36
2018-03-27T20:38:53.880Z,71.55
2018-03-27T20:41:21.440Z,71.09
2018-03-27T20:43:49.047Z,70.16
2018-03-27T20:46:16.604Z,70.63
2018-03-27T20:48:44.164Z,70.83
2018-03-27T20:51:11.870Z,71.16
2018-03-27T20:53:39.419Z,71.55
2018-03-27T20:56:07.002Z,71.42
2018-03-27T20:58:34.865Z,71.64
2018-03-27T21:01:02.417Z,71.75
2018-03-27T21:03:29.969Z,72.03
2018-03-27T21:05:57.550Z,72.42
2018-03-27T21:08:25.094Z,72.22
2018-03-27T21:10:52.649Z,71.83
2018-03-27T21:13:20.386Z,71.80
2018-03-27T21:15:47.923Z,71.30
2018-03-27T21:18:15.470Z,70.41
2018-03-27T21:20:43.041Z,71.03
2018-03-27T21:23:10.600Z,70.95
2018-03-27T21:25:38.152Z,70.89
2018-03-27T21:28:05.884Z,70.54
2018-03-27T21:30:33.434Z,69.41
2018-03-27T21:33:00.976Z,67.24
2018-03-27T21:35:28.663Z,67.00
2018-03-27T21:37:56.215Z,65.92
2018-03-27T21:40:23.762Z,65.25
2018-03-27T21:42:51.300Z,64.19
2018-03-27T21:45:18.852Z,63.89
2018-03-27T21:47:46.423Z,64.18
2018-03-27T21:50:13.993Z,63.81
2018-03-27T21:52:41.531Z,64.29
2018-03-27T21:55:09.276Z,64.20
2018-03-27T21:57:36.842Z,62.86
2018-03-27T22:00:04.434Z,63.63
2018-03-27T22:02:32.023Z,64.22
2018-03-27T22:04:59.566Z,64.87
2018-03-27T22:07:27.107Z,65.02
2018-03-27T22:09:54.710Z,64.63
2018-03-27T22:12:22.263Z,64.99
2018-03-27T22:14:49.811Z,64.41
2018-03-27T22:17:17.722Z,63.56
2018-03-27T22:19:45.268Z,62.70
2018-03-27T22:22:12.813Z,63.45
2018-03-27T22:24:40.540Z,63.24
2018-03-27T22:27:08.081Z,63.37
2018-03-27T22:29:35.629Z,62.67
2018-03-27T22:32:03.350Z,63.65
2018-03-27T22:34:30.889Z,64.07
2018-03-27T22:36:58.441Z,64.53
2018-03-27T22:39:26.162Z,65.89
2018-03-27T22:41:53.713Z,65.90
2018-03-27T22:44:21.253Z,66.30
2018-03-27T22:46:48.856Z,66.86
2018-03-27T22:49:16.424Z,68.19
2018-03-27T22:51:43.965Z,69.46
2018-03-27T22:54:11.544Z,69.55
2018-03-27T22:56:39.103Z,70.35
2018-03-27T22:59:06.666Z,70.94
2018-03-27T23:01:34.247Z,71.37
2018-03-27T23:04:01.799Z,71.85
2018-03-27T23:06:29.341Z,72.30
2018-03-27T23:08:57.060Z,71.47
2018-03-27T23:11:24.597Z,71.09
2018-03-27T23:13:52.168Z,71.77
2018-03-27T23:16:19.757Z,72.03
2018-03-27T23:18:47.311Z,72.11
2018-03-27T23:21:14.885Z,70.94
2018-03-27T23:23:42.627Z,70.71
2018-03-27T23:26:10.170Z,71.24
2018-03-27T23:28:37.727Z,72.08
2018-03-27T23:31:05.299Z,72.17
2018-03-27T23:33:32.854Z,72.50
2018-03-27T23:36:00.404Z,71.74
2018-03-27T23:38:27.997Z,72.76
2018-03-27T23:40:55.567Z,72.68
2018-03-27T23:43:23.740Z,73.33
2018-03-27T23:45:51.309Z,74.34
2018-03-27T23:48:18.878Z,74.77
2018-03-27T23:50:46.439Z,75.37
2018-03-27T23:53:14.166Z,75.28
2018-03-27T23:55:41.727Z,75.46
2018-03-27T23:58:09.298Z,74.54
